sensor_id;sensor_type;location;lat;lon;timestamp;pressure;altitude;pressure_sealevel;temperature;humidity
64628;BME280;59036;50.960;0.314;2022-08-11T00:01:13;100534.45;;;17.72;60.06
64628;BME280;59036;50.960;0.314;2022-08-11T00:03:44;100532.63;;;17.67;59.91
64628;BME280;59036;50.960;0.314;2022-08-11T00:06:13;100530.54;;;17.47;60.36
64628;BME280;59036;50.960;0.314;2022-08-11T00:08:42;100527.42;;;17.02;61.47
64628;BME280;59036;50.960;0.314;2022-08-11T00:11:11;100526.93;;;17.25;61.16
64628;BME280;59036;50.960;0.314;2022-08-11T00:13:41;100524.71;;;17.01;61.81
64628;BME280;59036;50.960;0.314;2022-08-11T00:16:13;100524.75;;;17.54;60.66
64628;BME280;59036;50.960;0.314;2022-08-11T00:18:42;100523.96;;;17.08;61.66
64628;BME280;59036;50.960;0.314;2022-08-11T00:21:10;100522.59;;;17.56;61.26
64628;BME280;59036;50.960;0.314;2022-08-11T00:23:42;100519.59;;;17.74;60.58
64628;BME280;59036;50.960;0.314;2022-08-11T00:26:10;100521.11;;;17.25;61.46
64628;BME280;59036;50.960;0.314;2022-08-11T00:28:38;100519.37;;;17.66;60.60
64628;BME280;59036;50.960;0.314;2022-08-11T00:31:08;100519.69;;;17.32;61.59
64628;BME280;59036;50.960;0.314;2022-08-11T00:33:40;100519.06;;;17.79;60.79
64628;BME280;59036;50.960;0.314;2022-08-11T00:36:10;100514.27;;;17.50;61.45
64628;BME280;59036;50.960;0.314;2022-08-11T00:38:40;100511.95;;;17.15;62.15
64628;BME280;59036;50.960;0.314;2022-08-11T00:41:30;100510.99;;;17.22;62.84
64628;BME280;59036;50.960;0.314;2022-08-11T00:44:10;100508.62;;;17.56;61.50
64628;BME280;59036;50.960;0.314;2022-08-11T00:46:49;100504.39;;;17.27;62.11
64628;BME280;59036;50.960;0.314;2022-08-11T00:49:33;100501.35;;;17.32;62.34
64628;BME280;59036;50.960;0.314;2022-08-11T00:52:13;100499.89;;;17.53;62.24
64628;BME280;59036;50.960;0.314;2022-08-11T00:55:12;100499.59;;;17.41;62.31
64628;BME280;59036;50.960;0.314;2022-08-11T00:58:22;100497.55;;;17.94;61.08
64628;BME280;59036;50.960;0.314;2022-08-11T01:01:08;100495.44;;;17.55;62.43
64628;BME280;59036;50.960;0.314;2022-08-11T01:04:01;100497.28;;;17.20;62.93
64628;BME280;59036;50.960;0.314;2022-08-11T01:06:53;100493.65;;;17.38;61.81
64628;BME280;59036;50.960;0.314;2022-08-11T01:09:34;100492.68;;;17.90;61.31
64628;BME280;59036;50.960;0.314;2022-08-11T01:12:26;100491.97;;;17.78;61.03
64628;BME280;59036;50.960;0.314;2022-08-11T01:15:23;100492.67;;;17.07;63.87
64628;BME280;59036;50.960;0.314;2022-08-11T01:18:50;100488.07;;;16.95;63.98
64628;BME280;59036;50.960;0.314;2022-08-11T01:24:08;100482.51;;;17.68;64.10
64628;BME280;59036;50.960;0.314;2022-08-11T01:36:44;100481.42;;;17.24;66.05
64628;BME280;59036;50.960;0.314;2022-08-11T01:39:32;100481.20;;;15.80;65.02
64628;BME280;59036;50.960;0.314;2022-08-11T01:42:23;100477.08;;;17.59;63.09
64628;BME280;59036;50.960;0.314;2022-08-11T01:45:06;100477.64;;;16.84;64.96
64628;BME280;59036;50.960;0.314;2022-08-11T01:47:43;100475.57;;;17.24;65.37
64628;BME280;59036;50.960;0.314;2022-08-11T01:50:18;100478.03;;;16.79;66.00
64628;BME280;59036;50.960;0.314;2022-08-11T01:53:03;100474.08;;;16.96;66.14
64628;BME280;59036;50.960;0.314;2022-08-11T01:55:42;100480.70;;;17.00;66.17
64628;BME280;59036;50.960;0.314;2022-08-11T01:58:19;100481.65;;;16.70;66.57
64628;BME280;59036;50.960;0.314;2022-08-11T02:01:01;100483.92;;;16.90;66.58
64628;BME280;59036;50.960;0.314;2022-08-11T02:03:40;100483.10;;;17.04;65.89
64628;BME280;59036;50.960;0.314;2022-08-11T02:06:21;100483.60;;;17.07;66.44
64628;BME280;59036;50.960;0.314;2022-08-11T02:09:01;100485.66;;;16.46;67.65
64628;BME280;59036;50.960;0.314;2022-08-11T02:11:32;100483.89;;;16.63;66.64
64628;BME280;59036;50.960;0.314;2022-08-11T02:14:11;100484.68;;;16.72;67.37
64628;BME280;59036;50.960;0.314;2022-08-11T02:16:50;100485.39;;;17.00;65.91
64628;BME280;59036;50.960;0.314;2022-08-11T02:19:25;100481.38;;;16.73;67.30
64628;BME280;59036;50.960;0.314;2022-08-11T02:22:03;100480.69;;;17.12;66.49
64628;BME280;59036;50.960;0.314;2022-08-11T02:24:40;100475.68;;;17.17;65.79
64628;BME280;59036;50.960;0.314;2022-08-11T02:27:18;100473.96;;;17.06;66.70
64628;BME280;59036;50.960;0.314;2022-08-11T02:29:54;100471.65;;;17.03;66.86
64628;BME280;59036;50.960;0.314;2022-08-11T02:32:30;100470.73;;;16.94;67.32
64628;BME280;59036;50.960;0.314;2022-08-11T02:35:07;100466.58;;;17.34;66.57
64628;BME280;59036;50.960;0.314;2022-08-11T02:37:44;100466.56;;;16.92;67.06
64628;BME280;59036;50.960;0.314;2022-08-11T02:40:23;100464.74;;;17.51;66.34
64628;BME280;59036;50.960;0.314;2022-08-11T02:43:03;100467.92;;;16.82;67.33
64628;BME280;59036;50.960;0.314;2022-08-11T02:45:41;100465.90;;;16.64;67.71
64628;BME280;59036;50.960;0.314;2022-08-11T02:48:26;100465.45;;;16.99;68.18
64628;BME280;59036;50.960;0.314;2022-08-11T02:51:05;100464.31;;;16.98;67.74
64628;BME280;59036;50.960;0.314;2022-08-11T02:53:40;100463.03;;;16.59;69.39
64628;BME280;59036;50.960;0.314;2022-08-11T02:56:13;100461.33;;;16.64;68.13
64628;BME280;59036;50.960;0.314;2022-08-11T02:58:51;100458.10;;;16.68;67.95
64628;BME280;59036;50.960;0.314;2022-08-11T03:01:29;100456.81;;;16.95;67.71
64628;BME280;59036;50.960;0.314;2022-08-11T03:04:11;100452.69;;;16.55;68.28
64628;BME280;59036;50.960;0.314;2022-08-11T03:06:49;100451.35;;;16.74;68.04
64628;BME280;59036;50.960;0.314;2022-08-11T03:09:24;100449.97;;;16.96;67.34
64628;BME280;59036;50.960;0.314;2022-08-11T03:12:03;100450.65;;;16.85;67.59
64628;BME280;59036;50.960;0.314;2022-08-11T03:14:37;100449.98;;;16.74;67.88
64628;BME280;59036;50.960;0.314;2022-08-11T03:17:20;100448.98;;;16.45;68.63
64628;BME280;59036;50.960;0.314;2022-08-11T03:20:04;100450.13;;;16.57;68.48
64628;BME280;59036;50.960;0.314;2022-08-11T03:22:42;100449.17;;;16.59;68.71
64628;BME280;59036;50.960;0.314;2022-08-11T03:25:24;100447.08;;;16.81;68.18
64628;BME280;59036;50.960;0.314;2022-08-11T03:28:01;100444.11;;;16.62;69.93
64628;BME280;59036;50.960;0.314;2022-08-11T03:30:41;100446.04;;;16.78;69.19
64628;BME280;59036;50.960;0.314;2022-08-11T03:33:19;100447.56;;;16.88;69.01
64628;BME280;59036;50.960;0.314;2022-08-11T03:36:09;100445.23;;;16.97;68.23
64628;BME280;59036;50.960;0.314;2022-08-11T03:38:52;100440.59;;;16.83;68.46
64628;BME280;59036;50.960;0.314;2022-08-11T03:41:31;100440.27;;;16.99;68.12
64628;BME280;59036;50.960;0.314;2022-08-11T03:44:06;100440.20;;;16.80;68.57
64628;BME280;59036;50.960;0.314;2022-08-11T03:46:55;100441.79;;;16.74;69.56
64628;BME280;59036;50.960;0.314;2022-08-11T03:49:33;100437.64;;;16.43;70.27
64628;BME280;59036;50.960;0.314;2022-08-11T03:52:13;100436.58;;;16.62;69.83
64628;BME280;59036;50.960;0.314;2022-08-11T03:54:51;100436.64;;;17.27;67.83
64628;BME280;59036;50.960;0.314;2022-08-11T04:01:19;100430.98;;;17.45;69.90
64628;BME280;59036;50.960;0.314;2022-08-11T04:04:05;100426.79;;;16.78;69.40
64628;BME280;59036;50.960;0.314;2022-08-11T04:07:04;100425.72;;;16.95;69.17
64628;BME280;59036;50.960;0.314;2022-08-11T04:11:01;100425.23;;;17.07;70.03
64628;BME280;59036;50.960;0.314;2022-08-11T04:14:03;100426.16;;;16.53;71.00
64628;BME280;59036;50.960;0.314;2022-08-11T04:16:41;100423.80;;;16.48;71.18
64628;BME280;59036;50.960;0.314;2022-08-11T04:19:31;100423.71;;;16.41;71.42
64628;BME280;59036;50.960;0.314;2022-08-11T04:22:17;100428.79;;;16.09;72.42
64628;BME280;59036;50.960;0.314;2022-08-11T04:25:09;100427.71;;;16.15;72.74
64628;BME280;59036;50.960;0.314;2022-08-11T04:28:20;100428.59;;;16.30;72.63
64628;BME280;59036;50.960;0.314;2022-08-11T04:31:03;100429.06;;;16.92;70.98
64628;BME280;59036;50.960;0.314;2022-08-11T04:33:51;100426.50;;;16.40;71.61
64628;BME280;59036;50.960;0.314;2022-08-11T04:36:40;100430.86;;;16.47;71.96
64628;BME280;59036;50.960;0.314;2022-08-11T04:39:19;100427.52;;;16.51;71.63
64628;BME280;59036;50.960;0.314;2022-08-11T04:42:11;100430.92;;;16.84;71.00
64628;BME280;59036;50.960;0.314;2022-08-11T04:45:07;100433.23;;;16.46;70.62
64628;BME280;59036;50.960;0.314;2022-08-11T04:47:50;100434.41;;;16.64;70.93
64628;BME280;59036;50.960;0.314;2022-08-11T04:50:30;100432.30;;;16.83;70.49
64628;BME280;59036;50.960;0.314;2022-08-11T04:53:12;100432.04;;;16.98;69.90
64628;BME280;59036;50.960;0.314;2022-08-11T04:56:01;100427.73;;;16.78;70.34
64628;BME280;59036;50.960;0.314;2022-08-11T04:58:46;100426.36;;;16.63;71.59
64628;BME280;59036;50.960;0.314;2022-08-11T05:01:25;100426.02;;;16.66;71.14
64628;BME280;59036;50.960;0.314;2022-08-11T05:04:15;100428.46;;;16.94;70.48
64628;BME280;59036;50.960;0.314;2022-08-11T05:07:04;100431.32;;;17.19;69.69
64628;BME280;59036;50.960;0.314;2022-08-11T05:09:58;100431.54;;;17.37;69.42
64628;BME280;59036;50.960;0.314;2022-08-11T05:12:35;100434.90;;;17.18;69.46
64628;BME280;59036;50.960;0.314;2022-08-11T05:15:12;100437.48;;;17.34;69.14
64628;BME280;59036;50.960;0.314;2022-08-11T05:17:44;100436.78;;;17.22;70.69
64628;BME280;59036;50.960;0.314;2022-08-11T05:20:12;100434.12;;;17.25;70.37
64628;BME280;59036;50.960;0.314;2022-08-11T05:22:47;100431.70;;;16.89;71.24
64628;BME280;59036;50.960;0.314;2022-08-11T05:25:21;100430.97;;;17.16;71.07
64628;BME280;59036;50.960;0.314;2022-08-11T05:27:56;100434.30;;;17.13;70.07
64628;BME280;59036;50.960;0.314;2022-08-11T05:30:28;100434.41;;;17.58;69.48
64628;BME280;59036;50.960;0.314;2022-08-11T05:32:58;100437.79;;;16.91;70.60
64628;BME280;59036;50.960;0.314;2022-08-11T05:35:37;100436.96;;;17.59;69.08
64628;BME280;59036;50.960;0.314;2022-08-11T05:38:11;100439.71;;;17.29;69.18
64628;BME280;59036;50.960;0.314;2022-08-11T05:40:47;100441.28;;;17.80;69.55
64628;BME280;59036;50.960;0.314;2022-08-11T05:43:15;100447.24;;;17.62;70.03
64628;BME280;59036;50.960;0.314;2022-08-11T05:45:43;100447.81;;;17.49;70.14
64628;BME280;59036;50.960;0.314;2022-08-11T05:48:22;100448.43;;;17.15;70.89
64628;BME280;59036;50.960;0.314;2022-08-11T05:50:57;100452.45;;;17.21;70.96
64628;BME280;59036;50.960;0.314;2022-08-11T05:53:26;100457.14;;;17.76;69.67
64628;BME280;59036;50.960;0.314;2022-08-11T05:55:55;100454.38;;;17.73;68.81
64628;BME280;59036;50.960;0.314;2022-08-11T05:58:24;100453.85;;;17.76;69.22
64628;BME280;59036;50.960;0.314;2022-08-11T06:00:51;100448.48;;;18.39;67.41
64628;BME280;59036;50.960;0.314;2022-08-11T06:03:24;100449.74;;;18.01;68.36
64628;BME280;59036;50.960;0.314;2022-08-11T06:05:53;100445.29;;;18.02;68.17
64628;BME280;59036;50.960;0.314;2022-08-11T06:08:28;100444.28;;;17.96;68.44
64628;BME280;59036;50.960;0.314;2022-08-11T06:11:00;100448.01;;;17.95;69.40
64628;BME280;59036;50.960;0.314;2022-08-11T06:13:28;100449.71;;;17.97;69.43
64628;BME280;59036;50.960;0.314;2022-08-11T06:15:57;100448.15;;;17.92;69.36
64628;BME280;59036;50.960;0.314;2022-08-11T06:18:24;100447.47;;;18.57;67.77
64628;BME280;59036;50.960;0.314;2022-08-11T06:20:53;100445.86;;;18.09;67.70
64628;BME280;59036;50.960;0.314;2022-08-11T06:23:23;100447.63;;;18.59;67.20
64628;BME280;59036;50.960;0.314;2022-08-11T06:25:52;100450.28;;;18.61;66.94
64628;BME280;59036;50.960;0.314;2022-08-11T06:28:28;100448.87;;;18.14;68.30
64628;BME280;59036;50.960;0.314;2022-08-11T06:30:57;100449.11;;;18.64;66.79
64628;BME280;59036;50.960;0.314;2022-08-11T06:33:38;100446.64;;;18.78;65.85
64628;BME280;59036;50.960;0.314;2022-08-11T06:36:22;100446.62;;;18.89;65.18
64628;BME280;59036;50.960;0.314;2022-08-11T06:39:01;100450.24;;;18.72;66.18
64628;BME280;59036;50.960;0.314;2022-08-11T06:41:39;100446.99;;;19.20;64.53
64628;BME280;59036;50.960;0.314;2022-08-11T06:44:17;100450.56;;;18.90;65.47
64628;BME280;59036;50.960;0.314;2022-08-11T06:46:50;100445.60;;;19.86;62.83
64628;BME280;59036;50.960;0.314;2022-08-11T06:49:20;100447.86;;;19.78;62.25
64628;BME280;59036;50.960;0.314;2022-08-11T06:51:48;100454.47;;;18.60;65.43
64628;BME280;59036;50.960;0.314;2022-08-11T06:54:16;100449.91;;;19.55;63.15
64628;BME280;59036;50.960;0.314;2022-08-11T06:56:45;100451.97;;;19.41;63.44
64628;BME280;59036;50.960;0.314;2022-08-11T06:59:15;100452.58;;;19.47;63.83
64628;BME280;59036;50.960;0.314;2022-08-11T07:01:50;100448.13;;;20.27;61.71
64628;BME280;59036;50.960;0.314;2022-08-11T07:04:28;100448.28;;;20.00;62.05
64628;BME280;59036;50.960;0.314;2022-08-11T07:07:10;100451.64;;;19.99;61.14
64628;BME280;59036;50.960;0.314;2022-08-11T07:10:15;100449.19;;;20.23;60.83
64628;BME280;59036;50.960;0.314;2022-08-11T07:12:49;100449.68;;;19.93;62.03
64628;BME280;59036;50.960;0.314;2022-08-11T07:15:19;100448.04;;;20.12;61.96
64628;BME280;59036;50.960;0.314;2022-08-11T07:17:50;100446.77;;;20.20;61.32
64628;BME280;59036;50.960;0.314;2022-08-11T07:20:17;100447.01;;;19.90;61.04
64628;BME280;59036;50.960;0.314;2022-08-11T07:22:49;100448.63;;;20.52;60.70
64628;BME280;59036;50.960;0.314;2022-08-11T07:25:18;100449.42;;;20.59;59.78
64628;BME280;59036;50.960;0.314;2022-08-11T07:28:01;100450.29;;;20.74;59.45
64628;BME280;59036;50.960;0.314;2022-08-11T07:30:30;100452.89;;;20.81;59.26
64628;BME280;59036;50.960;0.314;2022-08-11T07:33:00;100454.09;;;20.21;60.32
64628;BME280;59036;50.960;0.314;2022-08-11T07:35:32;100451.28;;;21.24;58.07
64628;BME280;59036;50.960;0.314;2022-08-11T07:38:03;100456.17;;;21.31;57.38
64628;BME280;59036;50.960;0.314;2022-08-11T07:40:31;100454.80;;;21.47;56.87
64628;BME280;59036;50.960;0.314;2022-08-11T07:43:00;100454.54;;;21.21;58.42
64628;BME280;59036;50.960;0.314;2022-08-11T07:45:27;100456.33;;;20.83;57.93
64628;BME280;59036;50.960;0.314;2022-08-11T07:47:56;100454.60;;;21.64;56.47
64628;BME280;59036;50.960;0.314;2022-08-11T07:50:24;100454.87;;;21.67;55.82
64628;BME280;59036;50.960;0.314;2022-08-11T07:52:52;100458.55;;;20.45;59.97
64628;BME280;59036;50.960;0.314;2022-08-11T07:55:21;100457.91;;;20.51;59.18
64628;BME280;59036;50.960;0.314;2022-08-11T07:57:48;100455.06;;;21.69;57.32
64628;BME280;59036;50.960;0.314;2022-08-11T08:00:17;100453.75;;;21.28;58.64
64628;BME280;59036;50.960;0.314;2022-08-11T08:02:44;100452.46;;;21.23;57.45
64628;BME280;59036;50.960;0.314;2022-08-11T08:05:13;100448.02;;;21.56;57.58
64628;BME280;59036;50.960;0.314;2022-08-11T08:07:42;100445.48;;;22.17;55.41
64628;BME280;59036;50.960;0.314;2022-08-11T08:10:09;100444.00;;;22.16;54.64
64628;BME280;59036;50.960;0.314;2022-08-11T08:12:37;100445.34;;;21.82;55.89
64628;BME280;59036;50.960;0.314;2022-08-11T08:15:07;100443.07;;;22.44;54.24
64628;BME280;59036;50.960;0.314;2022-08-11T08:17:36;100440.47;;;22.51;54.48
64628;BME280;59036;50.960;0.314;2022-08-11T08:20:04;100439.60;;;22.59;53.77
64628;BME280;59036;50.960;0.314;2022-08-11T08:22:32;100436.54;;;22.00;54.44
64628;BME280;59036;50.960;0.314;2022-08-11T08:25:01;100437.50;;;22.59;53.64
64628;BME280;59036;50.960;0.314;2022-08-11T08:27:28;100440.82;;;23.16;53.62
64628;BME280;59036;50.960;0.314;2022-08-11T08:29:56;100440.36;;;22.30;54.68
64628;BME280;59036;50.960;0.314;2022-08-11T08:32:25;100441.27;;;22.58;54.46
64628;BME280;59036;50.960;0.314;2022-08-11T08:34:54;100440.66;;;23.31;52.22
64628;BME280;59036;50.960;0.314;2022-08-11T08:37:24;100442.33;;;23.14;52.58
64628;BME280;59036;50.960;0.314;2022-08-11T08:39:52;100437.93;;;23.56;52.44
64628;BME280;59036;50.960;0.314;2022-08-11T08:42:24;100438.50;;;23.02;52.57
64628;BME280;59036;50.960;0.314;2022-08-11T08:44:58;100442.09;;;23.78;50.58
64628;BME280;59036;50.960;0.314;2022-08-11T08:47:28;100441.79;;;23.39;51.48
64628;BME280;59036;50.960;0.314;2022-08-11T08:49:59;100442.96;;;23.58;51.12
64628;BME280;59036;50.960;0.314;2022-08-11T08:52:32;100444.66;;;23.80;52.62
64628;BME280;59036;50.960;0.314;2022-08-11T08:55:03;100444.83;;;23.57;51.63
64628;BME280;59036;50.960;0.314;2022-08-11T08:57:35;100442.95;;;24.17;50.26
64628;BME280;59036;50.960;0.314;2022-08-11T09:00:04;100445.06;;;24.27;50.78
64628;BME280;59036;50.960;0.314;2022-08-11T09:02:32;100444.85;;;24.19;49.94
64628;BME280;59036;50.960;0.314;2022-08-11T09:05:00;100443.31;;;24.25;48.72
64628;BME280;59036;50.960;0.314;2022-08-11T09:07:29;100441.78;;;24.33;50.65
64628;BME280;59036;50.960;0.314;2022-08-11T09:09:58;100440.69;;;24.67;48.11
64628;BME280;59036;50.960;0.314;2022-08-11T09:12:27;100438.86;;;25.08;49.52
64628;BME280;59036;50.960;0.314;2022-08-11T09:14:55;100439.81;;;25.38;46.21
64628;BME280;59036;50.960;0.314;2022-08-11T09:17:24;100439.22;;;25.82;45.78
64628;BME280;59036;50.960;0.314;2022-08-11T09:19:55;100440.42;;;25.33;45.57
64628;BME280;59036;50.960;0.314;2022-08-11T09:22:25;100439.25;;;25.14;45.30
64628;BME280;59036;50.960;0.314;2022-08-11T09:24:53;100440.70;;;25.11;44.78
64628;BME280;59036;50.960;0.314;2022-08-11T09:27:22;100442.90;;;25.26;44.38
64628;BME280;59036;50.960;0.314;2022-08-11T09:29:51;100441.05;;;25.19;43.81
64628;BME280;59036;50.960;0.314;2022-08-11T09:32:19;100439.89;;;25.22;43.21
64628;BME280;59036;50.960;0.314;2022-08-11T09:34:49;100434.54;;;25.27;43.81
64628;BME280;59036;50.960;0.314;2022-08-11T09:37:22;100433.07;;;25.74;44.18
64628;BME280;59036;50.960;0.314;2022-08-11T09:39:50;100428.79;;;25.59;42.78
64628;BME280;59036;50.960;0.314;2022-08-11T09:42:20;100423.73;;;26.04;41.52
64628;BME280;59036;50.960;0.314;2022-08-11T09:44:48;100424.22;;;25.99;41.92
64628;BME280;59036;50.960;0.314;2022-08-11T09:47:19;100421.55;;;26.48;40.11
64628;BME280;59036;50.960;0.314;2022-08-11T09:49:48;100421.21;;;26.53;39.65
64628;BME280;59036;50.960;0.314;2022-08-11T09:52:17;100415.35;;;26.78;38.70
64628;BME280;59036;50.960;0.314;2022-08-11T09:54:46;100411.88;;;26.98;38.32
64628;BME280;59036;50.960;0.314;2022-08-11T09:57:17;100409.03;;;27.35;37.33
64628;BME280;59036;50.960;0.314;2022-08-11T09:59:46;100407.83;;;26.96;37.91
64628;BME280;59036;50.960;0.314;2022-08-11T10:02:14;100404.29;;;26.94;36.93
64628;BME280;59036;50.960;0.314;2022-08-11T10:04:43;100407.85;;;26.78;34.93
64628;BME280;59036;50.960;0.314;2022-08-11T10:07:12;100406.24;;;27.14;34.45
64628;BME280;59036;50.960;0.314;2022-08-11T10:09:44;100407.44;;;27.11;34.47
64628;BME280;59036;50.960;0.314;2022-08-11T10:12:20;100407.56;;;26.30;35.16
64628;BME280;59036;50.960;0.314;2022-08-11T10:14:52;100404.47;;;26.74;35.35
64628;BME280;59036;50.960;0.314;2022-08-11T10:17:20;100406.79;;;26.82;35.60
64628;BME280;59036;50.960;0.314;2022-08-11T10:19:49;100405.92;;;26.72;35.62
64628;BME280;59036;50.960;0.314;2022-08-11T10:22:17;100405.53;;;26.72;34.43
64628;BME280;59036;50.960;0.314;2022-08-11T10:24:44;100399.58;;;26.75;35.69
64628;BME280;59036;50.960;0.314;2022-08-11T10:27:12;100399.84;;;25.82;35.10
64628;BME280;59036;50.960;0.314;2022-08-11T10:29:41;100397.14;;;26.86;34.83
64628;BME280;59036;50.960;0.314;2022-08-11T10:32:09;100396.73;;;27.25;34.34
64628;BME280;59036;50.960;0.314;2022-08-11T10:34:37;100390.53;;;28.23;33.22
64628;BME280;59036;50.960;0.314;2022-08-11T10:37:06;100390.23;;;26.99;34.44
64628;BME280;59036;50.960;0.314;2022-08-11T10:39:34;100391.02;;;26.82;34.26
64628;BME280;59036;50.960;0.314;2022-08-11T10:42:02;100389.58;;;27.38;34.32
64628;BME280;59036;50.960;0.314;2022-08-11T10:44:36;100393.13;;;27.57;35.18
64628;BME280;59036;50.960;0.314;2022-08-11T10:47:04;100387.26;;;27.73;33.73
64628;BME280;59036;50.960;0.314;2022-08-11T10:49:32;100388.04;;;28.32;31.99
64628;BME280;59036;50.960;0.314;2022-08-11T10:52:00;100383.14;;;28.51;31.26
64628;BME280;59036;50.960;0.314;2022-08-11T10:54:28;100383.11;;;28.80;31.61
64628;BME280;59036;50.960;0.314;2022-08-11T10:56:56;100372.76;;;29.12;30.70
64628;BME280;59036;50.960;0.314;2022-08-11T10:59:26;100377.15;;;28.90;28.93
64628;BME280;59036;50.960;0.314;2022-08-11T11:01:54;100368.08;;;28.83;30.08
64628;BME280;59036;50.960;0.314;2022-08-11T11:04:27;100369.34;;;28.72;28.67
64628;BME280;59036;50.960;0.314;2022-08-11T11:07:00;100370.55;;;28.52;28.56
64628;BME280;59036;50.960;0.314;2022-08-11T11:09:31;100377.51;;;29.44;29.72
64628;BME280;59036;50.960;0.314;2022-08-11T11:12:03;100374.78;;;29.05;27.23
64628;BME280;59036;50.960;0.314;2022-08-11T11:14:35;100375.74;;;29.01;28.32
64628;BME280;59036;50.960;0.314;2022-08-11T11:17:04;100373.48;;;29.65;27.83
64628;BME280;59036;50.960;0.314;2022-08-11T11:19:37;100370.15;;;29.42;28.78
64628;BME280;59036;50.960;0.314;2022-08-11T11:22:04;100368.76;;;29.36;28.61
64628;BME280;59036;50.960;0.314;2022-08-11T11:24:40;100368.41;;;29.04;29.10
64628;BME280;59036;50.960;0.314;2022-08-11T11:27:17;100360.92;;;29.87;28.53
64628;BME280;59036;50.960;0.314;2022-08-11T11:29:56;100366.83;;;28.58;28.05
64628;BME280;59036;50.960;0.314;2022-08-11T11:32:38;100364.77;;;28.24;28.75
64628;BME280;59036;50.960;0.314;2022-08-11T11:35:15;100366.47;;;28.27;29.72
64628;BME280;59036;50.960;0.314;2022-08-11T11:37:47;100367.43;;;29.06;29.21
64628;BME280;59036;50.960;0.314;2022-08-11T11:40:17;100364.11;;;28.91;27.98
64628;BME280;59036;50.960;0.314;2022-08-11T11:42:45;100367.93;;;28.20;29.05
64628;BME280;59036;50.960;0.314;2022-08-11T11:45:15;100363.08;;;29.44;28.06
64628;BME280;59036;50.960;0.314;2022-08-11T11:47:43;100355.09;;;29.55;27.92
64628;BME280;59036;50.960;0.314;2022-08-11T11:50:12;100359.56;;;27.96;29.12
64628;BME280;59036;50.960;0.314;2022-08-11T11:52:40;100353.94;;;29.00;28.31
64628;BME280;59036;50.960;0.314;2022-08-11T11:55:08;100364.24;;;29.53;29.81
64628;BME280;59036;50.960;0.314;2022-08-11T11:57:36;100360.52;;;30.30;28.67
64628;BME280;59036;50.960;0.314;2022-08-11T12:00:05;100351.98;;;30.69;26.91
64628;BME280;59036;50.960;0.314;2022-08-11T12:02:34;100352.20;;;30.55;26.18
64628;BME280;59036;50.960;0.314;2022-08-11T12:05:03;100349.40;;;31.05;25.73
64628;BME280;59036;50.960;0.314;2022-08-11T12:07:31;100349.24;;;31.27;26.55
64628;BME280;59036;50.960;0.314;2022-08-11T12:09:59;100346.60;;;30.51;27.70
64628;BME280;59036;50.960;0.314;2022-08-11T12:12:26;100345.13;;;30.63;27.32
64628;BME280;59036;50.960;0.314;2022-08-11T12:14:54;100343.80;;;30.17;27.89
64628;BME280;59036;50.960;0.314;2022-08-11T12:17:22;100340.29;;;29.79;27.74
64628;BME280;59036;50.960;0.314;2022-08-11T12:19:49;100335.46;;;30.86;27.33
64628;BME280;59036;50.960;0.314;2022-08-11T12:22:18;100338.20;;;30.45;27.21
64628;BME280;59036;50.960;0.314;2022-08-11T12:24:46;100332.14;;;30.22;26.95
64628;BME280;59036;50.960;0.314;2022-08-11T12:27:14;100326.28;;;30.56;26.71
64628;BME280;59036;50.960;0.314;2022-08-11T12:29:42;100325.99;;;30.62;27.29
64628;BME280;59036;50.960;0.314;2022-08-11T12:32:10;100320.72;;;30.07;27.65
64628;BME280;59036;50.960;0.314;2022-08-11T12:34:38;100320.55;;;30.44;27.55
64628;BME280;59036;50.960;0.314;2022-08-11T12:37:06;100318.79;;;30.94;26.59
64628;BME280;59036;50.960;0.314;2022-08-11T12:39:37;100317.68;;;30.86;26.80
64628;BME280;59036;50.960;0.314;2022-08-11T12:42:05;100313.86;;;30.59;26.11
64628;BME280;59036;50.960;0.314;2022-08-11T12:44:33;100314.39;;;30.33;27.35
64628;BME280;59036;50.960;0.314;2022-08-11T12:47:01;100314.13;;;30.56;27.61
64628;BME280;59036;50.960;0.314;2022-08-11T12:49:31;100315.86;;;30.85;27.34
64628;BME280;59036;50.960;0.314;2022-08-11T12:52:05;100309.24;;;30.83;28.41
64628;BME280;59036;50.960;0.314;2022-08-11T12:54:39;100307.68;;;31.10;26.72
64628;BME280;59036;50.960;0.314;2022-08-11T12:57:11;100306.37;;;30.26;26.83
64628;BME280;59036;50.960;0.314;2022-08-11T12:59:40;100300.67;;;30.28;27.22
64628;BME280;59036;50.960;0.314;2022-08-11T13:02:08;100295.80;;;30.52;27.04
64628;BME280;59036;50.960;0.314;2022-08-11T13:04:38;100299.70;;;31.44;25.53
64628;BME280;59036;50.960;0.314;2022-08-11T13:07:06;100293.16;;;31.92;24.43
64628;BME280;59036;50.960;0.314;2022-08-11T13:09:34;100300.06;;;30.81;26.15
64628;BME280;59036;50.960;0.314;2022-08-11T13:12:02;100298.33;;;31.36;24.86
64628;BME280;59036;50.960;0.314;2022-08-11T13:14:30;100291.99;;;31.70;24.79
64628;BME280;59036;50.960;0.314;2022-08-11T13:16:58;100288.69;;;32.20;23.72
64628;BME280;59036;50.960;0.314;2022-08-11T13:19:26;100292.73;;;32.36;24.36
64628;BME280;59036;50.960;0.314;2022-08-11T13:21:54;100292.90;;;32.81;23.08
64628;BME280;59036;50.960;0.314;2022-08-11T13:24:23;100288.08;;;32.79;24.14
64628;BME280;59036;50.960;0.314;2022-08-11T13:26:50;100274.96;;;31.68;24.03
64628;BME280;59036;50.960;0.314;2022-08-11T13:29:19;100281.62;;;32.66;24.61
64628;BME280;59036;50.960;0.314;2022-08-11T13:31:48;100283.38;;;31.95;24.17
64628;BME280;59036;50.960;0.314;2022-08-11T13:34:17;100283.34;;;32.25;23.80
64628;BME280;59036;50.960;0.314;2022-08-11T13:36:44;100274.57;;;33.30;23.19
64628;BME280;59036;50.960;0.314;2022-08-11T13:39:12;100266.02;;;34.62;20.89
64628;BME280;59036;50.960;0.314;2022-08-11T13:41:41;100264.31;;;34.21;21.67
64628;BME280;59036;50.960;0.314;2022-08-11T13:44:11;100267.72;;;32.56;23.49